TimeEDT,TemperatureF,Dew PointF,Humidity,Sea Level PressureIn,VisibilityMPH,Wind Direction,Wind SpeedMPH,Gust SpeedMPH,PrecipitationIn,Events,Conditions,WindDirDegrees,DateUTC
12:54 AM,43.0,33.1,68,30.24,10.0,WSW,3.5,-,N/A,,Clear,250,2012-10-12 04:54:00
1:54 AM,46.0,34.0,63,30.23,10.0,Calm,Calm,-,N/A,,Clear,0,2012-10-12 05:54:00
2:54 AM,44.1,35.1,71,30.22,10.0,SW,3.5,-,N/A,,Clear,220,2012-10-12 06:54:00
3:54 AM,42.1,37.0,82,30.24,10.0,SW,5.8,-,N/A,,Clear,220,2012-10-12 07:54:00
4:54 AM,43.0,36.0,76,30.23,10.0,WSW,3.5,-,N/A,,Partly Cloudy,250,2012-10-12 08:54:00
5:54 AM,44.1,37.9,79,30.26,10.0,WSW,3.5,-,N/A,,Clear,250,2012-10-12 09:54:00
6:54 AM,44.1,36.0,73,30.29,10.0,West,3.5,-,N/A,,Clear,260,2012-10-12 10:54:00
7:54 AM,45.0,35.1,68,30.32,10.0,NNW,3.5,-,N/A,,Clear,330,2012-10-12 11:54:00
8:54 AM,46.0,39.0,76,30.35,10.0,NNE,11.5,-,N/A,,Clear,20,2012-10-12 12:54:00
9:54 AM,46.9,39.9,77,30.38,10.0,NNE,15.0,-,N/A,,Mostly Cloudy,30,2012-10-12 13:54:00
10:54 AM,51.1,37.0,59,30.40,10.0,NNE,15.0,21.9,N/A,,Clear,30,2012-10-12 14:54:00
11:54 AM,50.0,35.1,57,30.42,10.0,NNE,17.3,23.0,N/A,,Mostly Cloudy,30,2012-10-12 15:54:00
1:54 PM,54.0,33.1,45,30.40,10.0,Variable,6.9,19.6,N/A,,Clear,0,2012-10-12 17:54:00
2:54 PM,55.9,34.0,44,30.38,10.0,NE,10.4,17.3,N/A,,Clear,50,2012-10-12 18:54:00
3:54 PM,57.0,30.0,36,30.36,10.0,ENE,5.8,17.3,N/A,,Clear,70,2012-10-12 19:54:00
4:54 PM,55.9,27.0,33,30.36,10.0,NE,10.4,-,N/A,,Clear,50,2012-10-12 20:54:00
6:54 PM,48.9,28.0,44,30.39,10.0,NE,5.8,-,N/A,,Clear,50,2012-10-12 22:54:00
7:54 PM,46.0,28.0,50,30.40,10.0,NE,4.6,-,N/A,,Clear,40,2012-10-12 23:54:00
8:54 PM,43.0,28.9,58,30.40,10.0,NE,5.8,-,N/A,,Clear,50,2012-10-13 00:54:00
10:54 PM,41.0,27.0,57,30.40,10.0,ENE,6.9,-,N/A,,Clear,60,2012-10-13 02:54:00
11:54 PM,39.0,28.0,65,30.40,10.0,ENE,5.8,-,N/A,,Clear,60,2012-10-13 03:54:00